createdAt,value
2022-11-29T00:01:46.786Z,102292.92
2022-11-29T00:04:17.670Z,102296.09
2022-11-29T00:06:46.502Z,102294.89
2022-11-29T00:09:15.436Z,102291.27
2022-11-29T00:12:02.940Z,102291.48
2022-11-29T00:14:31.799Z,102291.89
2022-11-29T00:17:04.662Z,102290.84
2022-11-29T00:19:35.832Z,102291.50
2022-11-29T00:22:05.080Z,102288.27
2022-11-29T00:24:34.722Z,102281.40
2022-11-29T00:27:03.630Z,102281.88
2022-11-29T00:29:32.740Z,102280.36
2022-11-29T00:32:01.689Z,102278.81
2022-11-29T00:34:30.415Z,102283.05
2022-11-29T00:40:01.423Z,102285.02
2022-11-29T00:42:30.379Z,102282.92
2022-11-29T00:44:59.140Z,102286.41
2022-11-29T00:47:28.117Z,102284.61
2022-11-29T00:49:56.772Z,102284.95
2022-11-29T00:52:25.436Z,102288.20
2022-11-29T00:54:54.463Z,102288.20
2022-11-29T00:57:23.200Z,102287.91
2022-11-29T00:59:52.215Z,102288.13
2022-11-29T01:02:21.545Z,102285.91
2022-11-29T01:04:50.322Z,102281.05
2022-11-29T01:07:19.184Z,102278.94
2022-11-29T01:09:47.848Z,102277.19
2022-11-29T01:12:21.457Z,102276.48
2022-11-29T01:14:51.825Z,102272.93
2022-11-29T01:17:20.583Z,102270.64
2022-11-29T01:23:23.856Z,102268.50
2022-11-29T01:26:08.370Z,102266.34
2022-11-29T01:28:38.263Z,102263.06
2022-11-29T01:31:13.650Z,102261.52
2022-11-29T01:33:42.716Z,102263.80
2022-11-29T01:36:13.597Z,102260.27
2022-11-29T01:38:42.840Z,102258.02
2022-11-29T01:41:15.006Z,102255.25
2022-11-29T01:44:13.959Z,102254.71
2022-11-29T01:46:46.361Z,102252.87
2022-11-29T01:49:28.535Z,102249.95
2022-11-29T01:52:23.648Z,102254.92
2022-11-29T01:54:57.037Z,102253.33
2022-11-29T01:57:26.388Z,102254.98
2022-11-29T02:00:01.368Z,102257.58
2022-11-29T02:02:37.596Z,102256.70
2022-11-29T02:05:07.334Z,102255.86
2022-11-29T02:07:37.112Z,102252.71
2022-11-29T02:10:07.829Z,102251.25
2022-11-29T02:12:55.273Z,102251.63
2022-11-29T02:16:07.822Z,102251.81
2022-11-29T02:19:20.007Z,102248.09
2022-11-29T02:22:14.667Z,102250.71
2022-11-29T02:25:23.539Z,102248.77
2022-11-29T02:28:41.306Z,102253.52
2022-11-29T02:31:57.948Z,102253.58
2022-11-29T02:34:48.002Z,102253.15
2022-11-29T02:37:28.790Z,102251.75
2022-11-29T02:40:41.388Z,102246.40
2022-11-29T02:43:53.881Z,102246.83
2022-11-29T02:46:47.526Z,102248.52
2022-11-29T02:49:28.852Z,102249.84
2022-11-29T02:52:03.179Z,102251.64
2022-11-29T02:54:58.885Z,102252.43
2022-11-29T02:57:56.842Z,102249.44
2022-11-29T03:00:26.148Z,102244.38
2022-11-29T03:03:17.879Z,102245.83
2022-11-29T03:06:12.709Z,102253.46
2022-11-29T03:08:56.345Z,102257.30
2022-11-29T03:11:58.059Z,102255.69
2022-11-29T03:14:47.627Z,102253.20
2022-11-29T03:17:40.849Z,102250.69
2022-11-29T03:20:33.566Z,102257.78
2022-11-29T03:23:19.851Z,102264.48
2022-11-29T03:26:25.897Z,102263.34
2022-11-29T03:29:07.523Z,102259.29
2022-11-29T03:31:46.671Z,102261.48
2022-11-29T03:34:43.834Z,102266.55
2022-11-29T03:37:28.795Z,102269.44
2022-11-29T03:40:08.974Z,102271.30
2022-11-29T03:43:03.671Z,102274.23
2022-11-29T03:46:01.930Z,102273.88
2022-11-29T03:48:37.794Z,102272.07
2022-11-29T03:51:40.198Z,102275.42
2022-11-29T03:54:13.632Z,102279.66
2022-11-29T03:56:43.098Z,102281.85
2022-11-29T03:59:29.882Z,102281.12
2022-11-29T04:02:40.104Z,102283.46
2022-11-29T04:05:39.310Z,102288.56
2022-11-29T04:09:19.019Z,102288.27
2022-11-29T04:12:22.494Z,102286.82
2022-11-29T04:15:48.778Z,102289.96
2022-11-29T04:18:59.364Z,102288.31
2022-11-29T04:22:02.607Z,102287.96
2022-11-29T04:25:09.561Z,102290.70
2022-11-29T04:27:51.335Z,102296.35
2022-11-29T04:30:25.718Z,102295.66
2022-11-29T04:33:25.293Z,102296.98
2022-11-29T04:36:12.079Z,102294.50
2022-11-29T04:39:21.858Z,102294.20
2022-11-29T04:42:18.668Z,102299.35
2022-11-29T04:44:54.264Z,102305.83
2022-11-29T04:47:41.200Z,102308.61
2022-11-29T04:50:47.688Z,102314.17
2022-11-29T04:53:56.830Z,102313.20
2022-11-29T04:56:52.612Z,102308.67
2022-11-29T04:59:26.855Z,102311.84
2022-11-29T05:02:08.144Z,102311.89
2022-11-29T05:04:59.560Z,102318.44
2022-11-29T05:08:03.176Z,102322.68
2022-11-29T05:11:22.079Z,102321.70
2022-11-29T05:14:35.879Z,102329.73
2022-11-29T05:17:31.927Z,102332.41
2022-11-29T05:34:45.271Z,102342.61
2022-11-29T05:37:39.368Z,102345.30
2022-11-29T05:40:43.208Z,102351.17
2022-11-29T05:44:05.405Z,102358.30
2022-11-29T05:47:06.427Z,102359.56
2022-11-29T05:50:19.419Z,102359.33
2022-11-29T05:53:06.768Z,102359.89
2022-11-29T05:56:03.107Z,102369.30
2022-11-29T05:59:03.024Z,102373.45
2022-11-29T06:01:56.671Z,102372.91
2022-11-29T06:04:53.930Z,102372.83
2022-11-29T06:08:06.970Z,102372.83
2022-11-29T06:10:41.689Z,102371.92
2022-11-29T06:13:45.726Z,102369.31
2022-11-29T06:17:09.580Z,102365.13
2022-11-29T06:19:53.775Z,102364.71
2022-11-29T06:22:46.239Z,102371.71
2022-11-29T06:25:27.671Z,102373.75
2022-11-29T06:28:31.056Z,102373.76
2022-11-29T06:31:27.802Z,102377.86
2022-11-29T06:34:11.397Z,102380.75
2022-11-29T06:36:58.013Z,102374.90
2022-11-29T06:39:28.431Z,102377.13
2022-11-29T06:42:04.355Z,102380.50
2022-11-29T13:52:47.408Z,102335.90
2022-11-29T13:56:15.472Z,102339.58
2022-11-29T13:58:56.503Z,102341.55
2022-11-29T14:01:30.833Z,102348.09
2022-11-29T14:04:32.905Z,102342.33
2022-11-29T14:07:24.967Z,102343.00
2022-11-29T14:10:32.494Z,102342.89
2022-11-29T14:13:02.089Z,102333.60
2022-11-29T19:55:59.189Z,102444.30
2022-11-29T19:58:27.011Z,102446.61
2022-11-29T20:00:54.692Z,102447.29
2022-11-29T20:03:22.669Z,102446.45
2022-11-29T20:05:55.035Z,102445.09
2022-11-29T20:08:22.974Z,102440.81
2022-11-29T20:10:50.695Z,102441.67
2022-11-29T20:13:18.260Z,102439.60
2022-11-29T20:15:46.560Z,102439.83
2022-11-29T20:18:14.373Z,102443.28
2022-11-29T20:20:42.418Z,102443.77
2022-11-29T20:23:10.281Z,102447.54
2022-11-29T20:25:38.125Z,102448.64
2022-11-29T20:28:06.483Z,102450.52
2022-11-29T20:30:34.409Z,102454.67
2022-11-29T20:33:02.295Z,102454.52
2022-11-29T20:35:30.133Z,102453.70
2022-11-29T20:38:36.838Z,102450.83
2022-11-29T20:41:19.664Z,102447.37
2022-11-29T20:43:55.589Z,102451.79
2022-11-29T20:46:25.320Z,102453.71
2022-11-29T20:48:53.541Z,102450.64
2022-11-29T20:51:31.147Z,102448.81
2022-11-29T20:53:58.657Z,102444.37
2022-11-29T20:56:28.237Z,102444.41
2022-11-29T20:58:56.384Z,102447.86
2022-11-29T21:01:24.816Z,102451.30
2022-11-29T21:03:52.196Z,102451.45
2022-11-29T21:06:19.744Z,102451.61
2022-11-29T21:08:47.351Z,102451.41
2022-11-29T21:11:15.733Z,102455.02
2022-11-29T21:13:43.758Z,102455.63
2022-11-29T21:16:16.848Z,102454.16
2022-11-29T21:18:44.954Z,102445.61
2022-11-29T21:21:20.912Z,102449.67
2022-11-29T21:24:20.921Z,102452.92
2022-11-29T21:26:52.259Z,102450.31
2022-11-29T21:29:21.369Z,102446.76
2022-11-29T21:31:52.847Z,102445.27
2022-11-29T21:34:20.735Z,102449.04
2022-11-29T21:37:00.649Z,102445.86
2022-11-29T21:39:39.388Z,102445.05
2022-11-29T21:42:06.849Z,102443.18
2022-11-29T21:44:34.427Z,102438.08
2022-11-29T21:47:01.962Z,102441.90
2022-11-29T21:49:29.494Z,102447.92
2022-11-29T21:51:59.744Z,102450.50
2022-11-29T21:54:28.999Z,102452.23
2022-11-29T21:56:56.398Z,102451.70
2022-11-29T21:59:27.666Z,102445.70
2022-11-29T22:01:55.467Z,102447.73
2022-11-29T22:04:23.013Z,102447.43
2022-11-29T22:06:50.365Z,102448.40
2022-11-29T22:09:18.005Z,102448.77
2022-11-29T22:11:45.392Z,102444.64
2022-11-29T22:14:18.532Z,102444.58
2022-11-29T22:16:50.701Z,102444.13
2022-11-29T22:19:27.390Z,102436.91
2022-11-29T22:21:58.529Z,102430.20
2022-11-29T22:24:27.318Z,102425.80
2022-11-29T22:26:55.288Z,102428.03
2022-11-29T22:29:23.920Z,102426.05
2022-11-29T22:31:54.715Z,102421.38
2022-11-29T22:34:24.616Z,102423.38
2022-11-29T22:36:52.880Z,102424.56
2022-11-29T22:39:20.216Z,102429.84
2022-11-29T22:41:53.671Z,102429.63
2022-11-29T22:44:23.557Z,102436.64
2022-11-29T22:46:51.508Z,102439.48
2022-11-29T22:49:19.263Z,102436.68
2022-11-29T22:51:46.931Z,102435.70
2022-11-29T22:54:15.890Z,102437.20
2022-11-29T22:56:44.558Z,102434.50
2022-11-29T22:59:11.794Z,102427.95
2022-11-29T23:01:40.394Z,102420.46
2022-11-29T23:04:10.781Z,102416.04
2022-11-29T23:06:43.187Z,102415.64
2022-11-29T23:09:21.732Z,102414.16
2022-11-29T23:11:51.965Z,102412.33
2022-11-29T23:14:20.252Z,102414.13
2022-11-29T23:16:48.001Z,102415.02
2022-11-29T23:19:16.912Z,102407.77
2022-11-29T23:21:45.317Z,102403.83
2022-11-29T23:24:14.309Z,102403.76
2022-11-29T23:26:45.397Z,102401.39
2022-11-29T23:29:16.946Z,102400.36
2022-11-29T23:31:46.448Z,102395.55
2022-11-29T23:34:14.151Z,102392.73
2022-11-29T23:36:41.677Z,102392.13
2022-11-29T23:39:10.035Z,102395.01
2022-11-29T23:41:37.399Z,102400.05
2022-11-29T23:44:05.618Z,102402.53
2022-11-29T23:46:34.481Z,102398.36
2022-11-29T23:49:02.086Z,102397.94
2022-11-29T23:51:29.782Z,102398.67
2022-11-29T23:53:57.425Z,102399.84
2022-11-29T23:56:25.050Z,102398.17
2022-11-29T23:58:52.923Z,102400.73
